sensor_id;sensor_type;location;lat;lon;timestamp;P1;durP1;ratioP1;P2;durP2;ratioP2
56893;SDS011;43392;50.078;13.704;2024-01-10T00:02:20;119.30;;;43.63;;
56893;SDS011;43392;50.078;13.704;2024-01-10T00:04:46;92.20;;;38.70;;
56893;SDS011;43392;50.078;13.704;2024-01-10T00:07:14;138.13;;;47.73;;
56893;SDS011;43392;50.078;13.704;2024-01-10T00:09:41;146.57;;;52.00;;
56893;SDS011;43392;50.078;13.704;2024-01-10T00:12:07;113.23;;;44.03;;
56893;SDS011;43392;50.078;13.704;2024-01-10T00:14:34;107.93;;;41.80;;
56893;SDS011;43392;50.078;13.704;2024-01-10T00:17:01;101.93;;;40.97;;
56893;SDS011;43392;50.078;13.704;2024-01-10T00:19:28;122.97;;;48.80;;
56893;SDS011;43392;50.078;13.704;2024-01-10T00:21:55;155.90;;;62.87;;
56893;SDS011;43392;50.078;13.704;2024-01-10T00:24:22;145.30;;;56.63;;
56893;SDS011;43392;50.078;13.704;2024-01-10T00:26:49;95.53;;;42.67;;
56893;SDS011;43392;50.078;13.704;2024-01-10T00:29:16;80.93;;;36.53;;
56893;SDS011;43392;50.078;13.704;2024-01-10T00:31:42;77.23;;;30.90;;
56893;SDS011;43392;50.078;13.704;2024-01-10T00:34:09;67.60;;;29.30;;
56893;SDS011;43392;50.078;13.704;2024-01-10T00:36:35;64.20;;;28.80;;
56893;SDS011;43392;50.078;13.704;2024-01-10T00:39:02;57.70;;;26.77;;
56893;SDS011;43392;50.078;13.704;2024-01-10T00:41:31;63.10;;;28.73;;
56893;SDS011;43392;50.078;13.704;2024-01-10T00:43:58;59.30;;;26.90;;
56893;SDS011;43392;50.078;13.704;2024-01-10T00:46:24;56.83;;;26.13;;
56893;SDS011;43392;50.078;13.704;2024-01-10T00:48:51;54.93;;;26.70;;
56893;SDS011;43392;50.078;13.704;2024-01-10T00:51:18;63.23;;;26.47;;
56893;SDS011;43392;50.078;13.704;2024-01-10T00:53:44;62.47;;;26.97;;
56893;SDS011;43392;50.078;13.704;2024-01-10T00:56:11;61.67;;;25.23;;
56893;SDS011;43392;50.078;13.704;2024-01-10T00:58:39;59.27;;;25.73;;
56893;SDS011;43392;50.078;13.704;2024-01-10T01:01:06;61.23;;;25.17;;
56893;SDS011;43392;50.078;13.704;2024-01-10T01:03:33;51.20;;;23.30;;
56893;SDS011;43392;50.078;13.704;2024-01-10T01:06:01;58.27;;;25.57;;
56893;SDS011;43392;50.078;13.704;2024-01-10T01:08:27;60.60;;;25.00;;
56893;SDS011;43392;50.078;13.704;2024-01-10T01:10:54;57.03;;;24.63;;
56893;SDS011;43392;50.078;13.704;2024-01-10T01:13:21;49.67;;;23.10;;
56893;SDS011;43392;50.078;13.704;2024-01-10T01:15:49;55.63;;;25.50;;
56893;SDS011;43392;50.078;13.704;2024-01-10T01:18:16;61.13;;;24.53;;
56893;SDS011;43392;50.078;13.704;2024-01-10T01:20:44;62.00;;;26.40;;
56893;SDS011;43392;50.078;13.704;2024-01-10T01:23:12;60.27;;;25.00;;
56893;SDS011;43392;50.078;13.704;2024-01-10T01:25:38;58.00;;;25.93;;
56893;SDS011;43392;50.078;13.704;2024-01-10T01:28:05;69.27;;;27.70;;
56893;SDS011;43392;50.078;13.704;2024-01-10T01:30:32;58.63;;;25.67;;
56893;SDS011;43392;50.078;13.704;2024-01-10T01:33:00;65.77;;;25.83;;
56893;SDS011;43392;50.078;13.704;2024-01-10T01:35:29;61.13;;;25.57;;
56893;SDS011;43392;50.078;13.704;2024-01-10T01:37:56;56.47;;;24.40;;
56893;SDS011;43392;50.078;13.704;2024-01-10T01:40:23;61.93;;;26.03;;
56893;SDS011;43392;50.078;13.704;2024-01-10T01:42:49;61.83;;;25.57;;
56893;SDS011;43392;50.078;13.704;2024-01-10T01:45:16;58.50;;;25.10;;
56893;SDS011;43392;50.078;13.704;2024-01-10T01:47:42;57.97;;;26.43;;
56893;SDS011;43392;50.078;13.704;2024-01-10T01:50:10;56.83;;;26.20;;
56893;SDS011;43392;50.078;13.704;2024-01-10T01:52:37;70.53;;;26.37;;
56893;SDS011;43392;50.078;13.704;2024-01-10T01:55:04;59.60;;;24.27;;
56893;SDS011;43392;50.078;13.704;2024-01-10T01:57:34;64.70;;;25.20;;
56893;SDS011;43392;50.078;13.704;2024-01-10T02:00:01;58.77;;;26.13;;
56893;SDS011;43392;50.078;13.704;2024-01-10T02:02:29;57.57;;;25.77;;
56893;SDS011;43392;50.078;13.704;2024-01-10T02:04:56;52.63;;;24.00;;
56893;SDS011;43392;50.078;13.704;2024-01-10T02:07:25;62.60;;;26.40;;
56893;SDS011;43392;50.078;13.704;2024-01-10T02:09:53;59.97;;;24.97;;
56893;SDS011;43392;50.078;13.704;2024-01-10T02:12:19;62.40;;;25.87;;
56893;SDS011;43392;50.078;13.704;2024-01-10T02:14:46;53.13;;;23.93;;
56893;SDS011;43392;50.078;13.704;2024-01-10T02:17:13;55.23;;;25.27;;
56893;SDS011;43392;50.078;13.704;2024-01-10T02:19:40;60.87;;;24.33;;
56893;SDS011;43392;50.078;13.704;2024-01-10T02:22:07;62.13;;;23.80;;
56893;SDS011;43392;50.078;13.704;2024-01-10T02:24:37;48.13;;;23.97;;
56893;SDS011;43392;50.078;13.704;2024-01-10T02:27:05;55.50;;;25.50;;
56893;SDS011;43392;50.078;13.704;2024-01-10T02:29:32;59.70;;;25.40;;
56893;SDS011;43392;50.078;13.704;2024-01-10T02:32:00;61.47;;;27.37;;
56893;SDS011;43392;50.078;13.704;2024-01-10T02:34:26;60.30;;;26.67;;
56893;SDS011;43392;50.078;13.704;2024-01-10T02:36:53;62.47;;;25.20;;
56893;SDS011;43392;50.078;13.704;2024-01-10T02:39:20;67.23;;;26.60;;
56893;SDS011;43392;50.078;13.704;2024-01-10T02:41:46;54.93;;;25.77;;
56893;SDS011;43392;50.078;13.704;2024-01-10T02:44:14;60.43;;;26.87;;
56893;SDS011;43392;50.078;13.704;2024-01-10T02:46:41;57.53;;;24.17;;
56893;SDS011;43392;50.078;13.704;2024-01-10T02:49:07;58.23;;;27.77;;
56893;SDS011;43392;50.078;13.704;2024-01-10T02:51:34;60.37;;;25.47;;
56893;SDS011;43392;50.078;13.704;2024-01-10T02:54:01;62.23;;;25.57;;
56893;SDS011;43392;50.078;13.704;2024-01-10T02:56:27;56.13;;;25.87;;
56893;SDS011;43392;50.078;13.704;2024-01-10T02:58:54;65.17;;;26.80;;
56893;SDS011;43392;50.078;13.704;2024-01-10T03:01:22;56.83;;;25.83;;
56893;SDS011;43392;50.078;13.704;2024-01-10T03:03:49;58.50;;;26.10;;
56893;SDS011;43392;50.078;13.704;2024-01-10T03:06:15;59.83;;;25.93;;
56893;SDS011;43392;50.078;13.704;2024-01-10T03:08:42;59.33;;;25.70;;
56893;SDS011;43392;50.078;13.704;2024-01-10T03:11:08;63.10;;;28.60;;
56893;SDS011;43392;50.078;13.704;2024-01-10T03:13:35;74.10;;;29.30;;
56893;SDS011;43392;50.078;13.704;2024-01-10T03:16:02;63.43;;;28.90;;
56893;SDS011;43392;50.078;13.704;2024-01-10T03:18:31;57.37;;;26.57;;
56893;SDS011;43392;50.078;13.704;2024-01-10T03:20:57;57.80;;;26.67;;
56893;SDS011;43392;50.078;13.704;2024-01-10T03:23:24;50.17;;;25.53;;
56893;SDS011;43392;50.078;13.704;2024-01-10T03:25:52;56.07;;;24.87;;
56893;SDS011;43392;50.078;13.704;2024-01-10T03:28:20;61.63;;;26.27;;
56893;SDS011;43392;50.078;13.704;2024-01-10T03:30:47;55.97;;;26.43;;
56893;SDS011;43392;50.078;13.704;2024-01-10T03:33:13;58.67;;;24.97;;
56893;SDS011;43392;50.078;13.704;2024-01-10T03:35:42;56.90;;;25.70;;
56893;SDS011;43392;50.078;13.704;2024-01-10T03:38:08;57.13;;;26.00;;
56893;SDS011;43392;50.078;13.704;2024-01-10T03:40:35;57.87;;;25.87;;
56893;SDS011;43392;50.078;13.704;2024-01-10T03:43:02;59.90;;;27.40;;
56893;SDS011;43392;50.078;13.704;2024-01-10T03:45:29;62.90;;;27.90;;
56893;SDS011;43392;50.078;13.704;2024-01-10T03:47:55;61.47;;;28.13;;
56893;SDS011;43392;50.078;13.704;2024-01-10T03:50:22;65.43;;;25.70;;
56893;SDS011;43392;50.078;13.704;2024-01-10T03:52:50;59.37;;;27.37;;
56893;SDS011;43392;50.078;13.704;2024-01-10T03:55:17;59.33;;;26.70;;
56893;SDS011;43392;50.078;13.704;2024-01-10T03:57:43;64.07;;;26.40;;
56893;SDS011;43392;50.078;13.704;2024-01-10T04:00:10;58.73;;;25.80;;
56893;SDS011;43392;50.078;13.704;2024-01-10T04:02:37;59.50;;;26.43;;
56893;SDS011;43392;50.078;13.704;2024-01-10T04:05:06;61.37;;;27.83;;
56893;SDS011;43392;50.078;13.704;2024-01-10T04:07:34;67.28;;;27.23;;
56893;SDS011;43392;50.078;13.704;2024-01-10T04:10:02;68.07;;;28.80;;
56893;SDS011;43392;50.078;13.704;2024-01-10T04:12:31;61.25;;;29.10;;
56893;SDS011;43392;50.078;13.704;2024-01-10T04:14:58;62.80;;;26.70;;
56893;SDS011;43392;50.078;13.704;2024-01-10T04:17:25;70.00;;;28.13;;
56893;SDS011;43392;50.078;13.704;2024-01-10T04:19:51;61.53;;;28.70;;
56893;SDS011;43392;50.078;13.704;2024-01-10T04:22:18;69.57;;;29.30;;
56893;SDS011;43392;50.078;13.704;2024-01-10T04:24:44;68.37;;;28.17;;
56893;SDS011;43392;50.078;13.704;2024-01-10T04:27:12;65.50;;;28.77;;
56893;SDS011;43392;50.078;13.704;2024-01-10T04:29:39;72.80;;;29.40;;
56893;SDS011;43392;50.078;13.704;2024-01-10T04:32:06;72.07;;;31.27;;
56893;SDS011;43392;50.078;13.704;2024-01-10T04:34:32;65.73;;;28.33;;
56893;SDS011;43392;50.078;13.704;2024-01-10T04:36:59;72.60;;;30.20;;
56893;SDS011;43392;50.078;13.704;2024-01-10T04:39:26;67.40;;;28.93;;
56893;SDS011;43392;50.078;13.704;2024-01-10T04:41:53;68.23;;;29.27;;
56893;SDS011;43392;50.078;13.704;2024-01-10T04:44:21;66.03;;;29.90;;
56893;SDS011;43392;50.078;13.704;2024-01-10T04:46:48;66.67;;;28.37;;
56893;SDS011;43392;50.078;13.704;2024-01-10T04:49:14;71.63;;;30.33;;
56893;SDS011;43392;50.078;13.704;2024-01-10T04:51:41;67.43;;;28.53;;
56893;SDS011;43392;50.078;13.704;2024-01-10T04:54:08;63.87;;;29.83;;
56893;SDS011;43392;50.078;13.704;2024-01-10T04:56:35;71.40;;;28.70;;
56893;SDS011;43392;50.078;13.704;2024-01-10T04:59:02;70.20;;;30.20;;
56893;SDS011;43392;50.078;13.704;2024-01-10T05:01:30;69.50;;;30.43;;
56893;SDS011;43392;50.078;13.704;2024-01-10T05:03:57;67.53;;;28.40;;
56893;SDS011;43392;50.078;13.704;2024-01-10T05:06:23;64.57;;;29.20;;
56893;SDS011;43392;50.078;13.704;2024-01-10T05:08:50;79.73;;;32.10;;
56893;SDS011;43392;50.078;13.704;2024-01-10T05:11:17;85.53;;;34.87;;
56893;SDS011;43392;50.078;13.704;2024-01-10T05:13:43;73.70;;;30.23;;
56893;SDS011;43392;50.078;13.704;2024-01-10T05:16:10;78.23;;;33.50;;
56893;SDS011;43392;50.078;13.704;2024-01-10T05:18:38;75.87;;;33.30;;
56893;SDS011;43392;50.078;13.704;2024-01-10T05:21:05;70.77;;;31.23;;
56893;SDS011;43392;50.078;13.704;2024-01-10T05:23:31;72.33;;;32.30;;
56893;SDS011;43392;50.078;13.704;2024-01-10T05:25:58;73.07;;;30.13;;
56893;SDS011;43392;50.078;13.704;2024-01-10T05:28:25;68.43;;;29.40;;
56893;SDS011;43392;50.078;13.704;2024-01-10T05:30:51;66.77;;;28.23;;
56893;SDS011;43392;50.078;13.704;2024-01-10T05:33:19;76.23;;;30.40;;
56893;SDS011;43392;50.078;13.704;2024-01-10T05:35:47;78.43;;;30.23;;
56893;SDS011;43392;50.078;13.704;2024-01-10T05:38:14;66.50;;;29.03;;
56893;SDS011;43392;50.078;13.704;2024-01-10T05:40:40;69.80;;;30.93;;
56893;SDS011;43392;50.078;13.704;2024-01-10T05:43:07;71.37;;;31.93;;
56893;SDS011;43392;50.078;13.704;2024-01-10T05:45:35;76.17;;;33.13;;
56893;SDS011;43392;50.078;13.704;2024-01-10T05:48:02;78.67;;;30.40;;
56893;SDS011;43392;50.078;13.704;2024-01-10T05:50:29;80.67;;;32.53;;
56893;SDS011;43392;50.078;13.704;2024-01-10T05:52:57;69.60;;;33.07;;
56893;SDS011;43392;50.078;13.704;2024-01-10T05:55:24;75.07;;;30.97;;
56893;SDS011;43392;50.078;13.704;2024-01-10T05:57:50;72.63;;;30.93;;
56893;SDS011;43392;50.078;13.704;2024-01-10T06:00:17;68.13;;;30.87;;
56893;SDS011;43392;50.078;13.704;2024-01-10T06:02:46;73.77;;;31.30;;
56893;SDS011;43392;50.078;13.704;2024-01-10T06:05:12;72.03;;;30.93;;
56893;SDS011;43392;50.078;13.704;2024-01-10T06:07:39;81.53;;;30.63;;
56893;SDS011;43392;50.078;13.704;2024-01-10T06:10:09;84.60;;;32.57;;
56893;SDS011;43392;50.078;13.704;2024-01-10T06:12:36;83.90;;;34.13;;
56893;SDS011;43392;50.078;13.704;2024-01-10T06:15:03;83.50;;;34.97;;
56893;SDS011;43392;50.078;13.704;2024-01-10T06:17:31;92.07;;;37.67;;
56893;SDS011;43392;50.078;13.704;2024-01-10T06:19:58;86.97;;;39.30;;
56893;SDS011;43392;50.078;13.704;2024-01-10T06:22:25;94.23;;;35.60;;
56893;SDS011;43392;50.078;13.704;2024-01-10T06:24:52;86.90;;;35.63;;
56893;SDS011;43392;50.078;13.704;2024-01-10T06:27:20;77.73;;;33.70;;
56893;SDS011;43392;50.078;13.704;2024-01-10T06:29:46;80.97;;;33.47;;
56893;SDS011;43392;50.078;13.704;2024-01-10T06:32:13;92.43;;;37.03;;
56893;SDS011;43392;50.078;13.704;2024-01-10T06:34:40;84.17;;;35.27;;
56893;SDS011;43392;50.078;13.704;2024-01-10T06:37:07;88.03;;;36.70;;
56893;SDS011;43392;50.078;13.704;2024-01-10T06:39:34;85.20;;;35.90;;
56893;SDS011;43392;50.078;13.704;2024-01-10T06:42:00;95.77;;;37.43;;
56893;SDS011;43392;50.078;13.704;2024-01-10T06:44:30;93.70;;;35.77;;
56893;SDS011;43392;50.078;13.704;2024-01-10T06:46:56;90.30;;;38.03;;
56893;SDS011;43392;50.078;13.704;2024-01-10T06:49:23;81.73;;;35.97;;
56893;SDS011;43392;50.078;13.704;2024-01-10T06:51:50;84.27;;;34.17;;
56893;SDS011;43392;50.078;13.704;2024-01-10T06:54:16;87.27;;;36.43;;
56893;SDS011;43392;50.078;13.704;2024-01-10T06:56:44;81.10;;;34.17;;
56893;SDS011;43392;50.078;13.704;2024-01-10T06:59:11;78.57;;;34.43;;
56893;SDS011;43392;50.078;13.704;2024-01-10T07:01:39;79.40;;;33.33;;
56893;SDS011;43392;50.078;13.704;2024-01-10T07:04:05;73.67;;;32.90;;
56893;SDS011;43392;50.078;13.704;2024-01-10T07:06:32;81.37;;;34.23;;
56893;SDS011;43392;50.078;13.704;2024-01-10T07:08:59;75.37;;;33.90;;
56893;SDS011;43392;50.078;13.704;2024-01-10T07:11:25;79.13;;;34.50;;
56893;SDS011;43392;50.078;13.704;2024-01-10T07:13:53;74.10;;;33.20;;
56893;SDS011;43392;50.078;13.704;2024-01-10T07:16:19;74.60;;;34.83;;
56893;SDS011;43392;50.078;13.704;2024-01-10T07:18:47;79.10;;;35.77;;
56893;SDS011;43392;50.078;13.704;2024-01-10T07:21:16;80.35;;;37.42;;
56893;SDS011;43392;50.078;13.704;2024-01-10T07:23:43;81.67;;;35.47;;
56893;SDS011;43392;50.078;13.704;2024-01-10T07:26:09;95.50;;;38.00;;
56893;SDS011;43392;50.078;13.704;2024-01-10T07:28:39;79.03;;;34.72;;
56893;SDS011;43392;50.078;13.704;2024-01-10T07:31:06;75.07;;;34.20;;
56893;SDS011;43392;50.078;13.704;2024-01-10T07:33:33;72.13;;;34.00;;
56893;SDS011;43392;50.078;13.704;2024-01-10T07:36:01;81.13;;;35.87;;
56893;SDS011;43392;50.078;13.704;2024-01-10T07:38:28;86.40;;;35.03;;
56893;SDS011;43392;50.078;13.704;2024-01-10T07:40:55;73.40;;;33.60;;
56893;SDS011;43392;50.078;13.704;2024-01-10T07:43:24;76.17;;;35.23;;
56893;SDS011;43392;50.078;13.704;2024-01-10T07:45:50;74.93;;;36.13;;
56893;SDS011;43392;50.078;13.704;2024-01-10T07:48:18;86.60;;;36.17;;
56893;SDS011;43392;50.078;13.704;2024-01-10T07:50:45;75.77;;;33.43;;
56893;SDS011;43392;50.078;13.704;2024-01-10T07:53:13;81.73;;;36.13;;
56893;SDS011;43392;50.078;13.704;2024-01-10T07:55:40;82.63;;;34.77;;
56893;SDS011;43392;50.078;13.704;2024-01-10T07:58:06;94.60;;;39.57;;
56893;SDS011;43392;50.078;13.704;2024-01-10T08:00:33;98.57;;;39.17;;
56893;SDS011;43392;50.078;13.704;2024-01-10T08:03:00;100.40;;;41.43;;
56893;SDS011;43392;50.078;13.704;2024-01-10T08:05:27;94.67;;;41.30;;
56893;SDS011;43392;50.078;13.704;2024-01-10T08:07:54;109.73;;;46.57;;
56893;SDS011;43392;50.078;13.704;2024-01-10T08:10:22;89.33;;;39.67;;
56893;SDS011;43392;50.078;13.704;2024-01-10T08:12:49;80.87;;;34.73;;
56893;SDS011;43392;50.078;13.704;2024-01-10T08:15:29;81.37;;;37.27;;
56893;SDS011;43392;50.078;13.704;2024-01-10T08:17:59;70.23;;;32.17;;
56893;SDS011;43392;50.078;13.704;2024-01-10T08:20:28;75.23;;;32.43;;
56893;SDS011;43392;50.078;13.704;2024-01-10T08:22:54;69.47;;;33.13;;
56893;SDS011;43392;50.078;13.704;2024-01-10T08:25:23;74.93;;;32.60;;
56893;SDS011;43392;50.078;13.704;2024-01-10T08:27:50;77.07;;;33.47;;
56893;SDS011;43392;50.078;13.704;2024-01-10T08:30:18;75.77;;;33.13;;
56893;SDS011;43392;50.078;13.704;2024-01-10T08:32:46;75.47;;;32.57;;
56893;SDS011;43392;50.078;13.704;2024-01-10T08:35:13;77.03;;;33.07;;
56893;SDS011;43392;50.078;13.704;2024-01-10T08:37:40;80.20;;;33.63;;
56893;SDS011;43392;50.078;13.704;2024-01-10T08:40:08;69.27;;;31.43;;
56893;SDS011;43392;50.078;13.704;2024-01-10T08:42:38;73.73;;;31.07;;
56893;SDS011;43392;50.078;13.704;2024-01-10T08:45:05;69.67;;;31.23;;
56893;SDS011;43392;50.078;13.704;2024-01-10T08:47:33;72.97;;;33.87;;
56893;SDS011;43392;50.078;13.704;2024-01-10T08:50:00;79.73;;;32.97;;
56893;SDS011;43392;50.078;13.704;2024-01-10T08:52:27;64.53;;;28.83;;
56893;SDS011;43392;50.078;13.704;2024-01-10T08:54:54;68.40;;;29.83;;
56893;SDS011;43392;50.078;13.704;2024-01-10T08:57:21;72.50;;;31.33;;
56893;SDS011;43392;50.078;13.704;2024-01-10T08:59:49;68.00;;;30.40;;
56893;SDS011;43392;50.078;13.704;2024-01-10T09:02:15;81.13;;;33.70;;
56893;SDS011;43392;50.078;13.704;2024-01-10T09:04:42;73.50;;;31.30;;
56893;SDS011;43392;50.078;13.704;2024-01-10T09:07:09;77.97;;;33.90;;
56893;SDS011;43392;50.078;13.704;2024-01-10T09:09:35;71.50;;;32.50;;
56893;SDS011;43392;50.078;13.704;2024-01-10T09:12:02;70.87;;;33.40;;
56893;SDS011;43392;50.078;13.704;2024-01-10T09:14:29;81.37;;;37.30;;
56893;SDS011;43392;50.078;13.704;2024-01-10T09:16:57;72.80;;;35.73;;
56893;SDS011;43392;50.078;13.704;2024-01-10T09:19:28;72.47;;;30.60;;
56893;SDS011;43392;50.078;13.704;2024-01-10T09:21:54;75.17;;;32.67;;
56893;SDS011;43392;50.078;13.704;2024-01-10T09:24:22;68.80;;;30.57;;
56893;SDS011;43392;50.078;13.704;2024-01-10T09:26:51;74.30;;;33.33;;
56893;SDS011;43392;50.078;13.704;2024-01-10T09:29:18;70.13;;;32.40;;
56893;SDS011;43392;50.078;13.704;2024-01-10T09:31:45;69.30;;;31.10;;
56893;SDS011;43392;50.078;13.704;2024-01-10T09:34:13;68.93;;;30.60;;
56893;SDS011;43392;50.078;13.704;2024-01-10T09:36:39;77.53;;;30.60;;
56893;SDS011;43392;50.078;13.704;2024-01-10T09:39:06;62.40;;;29.00;;
56893;SDS011;43392;50.078;13.704;2024-01-10T09:41:40;69.93;;;29.50;;
56893;SDS011;43392;50.078;13.704;2024-01-10T09:44:11;64.30;;;27.90;;
56893;SDS011;43392;50.078;13.704;2024-01-10T09:46:38;69.60;;;29.93;;
56893;SDS011;43392;50.078;13.704;2024-01-10T09:49:06;70.37;;;29.03;;
56893;SDS011;43392;50.078;13.704;2024-01-10T09:51:35;67.97;;;31.60;;
56893;SDS011;43392;50.078;13.704;2024-01-10T09:54:03;72.40;;;29.03;;
56893;SDS011;43392;50.078;13.704;2024-01-10T09:56:30;70.20;;;31.13;;
56893;SDS011;43392;50.078;13.704;2024-01-10T09:58:58;62.23;;;28.00;;
56893;SDS011;43392;50.078;13.704;2024-01-10T10:01:27;64.95;;;30.60;;
56893;SDS011;43392;50.078;13.704;2024-01-10T10:03:53;60.47;;;28.03;;
56893;SDS011;43392;50.078;13.704;2024-01-10T10:06:23;69.53;;;30.40;;
56893;SDS011;43392;50.078;13.704;2024-01-10T10:08:52;59.07;;;27.77;;
56893;SDS011;43392;50.078;13.704;2024-01-10T10:11:18;58.80;;;26.47;;
56893;SDS011;43392;50.078;13.704;2024-01-10T10:13:45;56.80;;;26.37;;
56893;SDS011;43392;50.078;13.704;2024-01-10T10:16:12;63.50;;;28.43;;
56893;SDS011;43392;50.078;13.704;2024-01-10T10:18:39;60.70;;;27.57;;
56893;SDS011;43392;50.078;13.704;2024-01-10T10:21:07;61.03;;;26.90;;
56893;SDS011;43392;50.078;13.704;2024-01-10T10:23:35;57.23;;;25.47;;
56893;SDS011;43392;50.078;13.704;2024-01-10T10:26:11;58.83;;;27.33;;
56893;SDS011;43392;50.078;13.704;2024-01-10T10:28:40;65.90;;;30.50;;
56893;SDS011;43392;50.078;13.704;2024-01-10T10:31:07;76.30;;;32.40;;
56893;SDS011;43392;50.078;13.704;2024-01-10T10:33:33;115.00;;;44.10;;
56893;SDS011;43392;50.078;13.704;2024-01-10T10:36:00;55.87;;;26.33;;
56893;SDS011;43392;50.078;13.704;2024-01-10T10:38:28;93.07;;;34.63;;
56893;SDS011;43392;50.078;13.704;2024-01-10T10:40:55;52.73;;;25.20;;
56893;SDS011;43392;50.078;13.704;2024-01-10T10:43:23;160.93;;;57.57;;
56893;SDS011;43392;50.078;13.704;2024-01-10T10:45:50;73.53;;;32.60;;
56893;SDS011;43392;50.078;13.704;2024-01-10T10:48:17;61.10;;;26.70;;
56893;SDS011;43392;50.078;13.704;2024-01-10T10:50:47;66.70;;;28.67;;
56893;SDS011;43392;50.078;13.704;2024-01-10T10:53:20;61.07;;;26.67;;
56893;SDS011;43392;50.078;13.704;2024-01-10T10:55:49;53.53;;;24.67;;
56893;SDS011;43392;50.078;13.704;2024-01-10T10:58:17;50.10;;;25.30;;
56893;SDS011;43392;50.078;13.704;2024-01-10T11:00:45;51.83;;;24.77;;
56893;SDS011;43392;50.078;13.704;2024-01-10T11:03:13;51.87;;;25.20;;
56893;SDS011;43392;50.078;13.704;2024-01-10T11:05:42;49.83;;;24.90;;
56893;SDS011;43392;50.078;13.704;2024-01-10T11:08:11;52.63;;;25.17;;
56893;SDS011;43392;50.078;13.704;2024-01-10T11:10:42;53.57;;;24.50;;
56893;SDS011;43392;50.078;13.704;2024-01-10T11:16:13;53.83;;;25.00;;
56893;SDS011;43392;50.078;13.704;2024-01-10T11:19:12;54.37;;;25.37;;
56893;SDS011;43392;50.078;13.704;2024-01-10T11:21:56;51.95;;;24.27;;
56893;SDS011;43392;50.078;13.704;2024-01-10T11:24:33;59.40;;;25.17;;
56893;SDS011;43392;50.078;13.704;2024-01-10T11:27:06;52.73;;;24.33;;
56893;SDS011;43392;50.078;13.704;2024-01-10T11:29:36;52.83;;;23.10;;
56893;SDS011;43392;50.078;13.704;2024-01-10T11:32:06;51.03;;;24.03;;
56893;SDS011;43392;50.078;13.704;2024-01-10T11:34:34;49.90;;;24.07;;
56893;SDS011;43392;50.078;13.704;2024-01-10T11:37:10;47.67;;;23.73;;
56893;SDS011;43392;50.078;13.704;2024-01-10T11:39:40;51.17;;;23.80;;
56893;SDS011;43392;50.078;13.704;2024-01-10T11:42:08;48.63;;;23.87;;
56893;SDS011;43392;50.078;13.704;2024-01-10T11:44:42;45.03;;;22.73;;
56893;SDS011;43392;50.078;13.704;2024-01-10T11:47:14;47.30;;;22.43;;
56893;SDS011;43392;50.078;13.704;2024-01-10T11:49:53;47.13;;;23.37;;
56893;SDS011;43392;50.078;13.704;2024-01-10T11:52:21;44.00;;;21.73;;
56893;SDS011;43392;50.078;13.704;2024-01-10T11:54:48;52.53;;;24.47;;
56893;SDS011;43392;50.078;13.704;2024-01-10T11:57:18;51.00;;;23.33;;
56893;SDS011;43392;50.078;13.704;2024-01-10T11:59:47;49.00;;;23.27;;
56893;SDS011;43392;50.078;13.704;2024-01-10T12:02:17;49.43;;;23.33;;
56893;SDS011;43392;50.078;13.704;2024-01-10T12:04:45;52.10;;;23.80;;
56893;SDS011;43392;50.078;13.704;2024-01-10T12:07:11;50.73;;;24.03;;
56893;SDS011;43392;50.078;13.704;2024-01-10T12:09:38;54.80;;;25.90;;
56893;SDS011;43392;50.078;13.704;2024-01-10T12:12:05;64.20;;;29.60;;
56893;SDS011;43392;50.078;13.704;2024-01-10T12:14:33;48.87;;;24.20;;
56893;SDS011;43392;50.078;13.704;2024-01-10T12:17:01;51.40;;;25.93;;
56893;SDS011;43392;50.078;13.704;2024-01-10T12:19:31;50.40;;;25.30;;
56893;SDS011;43392;50.078;13.704;2024-01-10T12:21:57;53.77;;;26.73;;
56893;SDS011;43392;50.078;13.704;2024-01-10T12:24:24;55.87;;;27.10;;
56893;SDS011;43392;50.078;13.704;2024-01-10T12:26:54;54.47;;;25.30;;
56893;SDS011;43392;50.078;13.704;2024-01-10T12:29:21;53.60;;;25.70;;
56893;SDS011;43392;50.078;13.704;2024-01-10T12:31:50;52.87;;;24.57;;
56893;SDS011;43392;50.078;13.704;2024-01-10T12:34:17;49.37;;;25.53;;
56893;SDS011;43392;50.078;13.704;2024-01-10T12:36:45;53.23;;;25.73;;
56893;SDS011;43392;50.078;13.704;2024-01-10T12:39:12;59.93;;;25.63;;
56893;SDS011;43392;50.078;13.704;2024-01-10T12:41:39;55.65;;;25.67;;
56893;SDS011;43392;50.078;13.704;2024-01-10T12:44:07;51.27;;;27.73;;
56893;SDS011;43392;50.078;13.704;2024-01-10T12:46:33;57.43;;;28.50;;
56893;SDS011;43392;50.078;13.704;2024-01-10T12:49:00;48.00;;;26.37;;
56893;SDS011;43392;50.078;13.704;2024-01-10T12:51:30;53.07;;;26.37;;
56893;SDS011;43392;50.078;13.704;2024-01-10T12:54:00;53.57;;;25.43;;
56893;SDS011;43392;50.078;13.704;2024-01-10T12:56:27;51.67;;;26.25;;
56893;SDS011;43392;50.078;13.704;2024-01-10T12:58:54;56.63;;;28.03;;
56893;SDS011;43392;50.078;13.704;2024-01-10T13:01:21;48.77;;;24.37;;
56893;SDS011;43392;50.078;13.704;2024-01-10T13:03:48;64.83;;;36.70;;
56893;SDS011;43392;50.078;13.704;2024-01-10T13:06:15;51.03;;;25.52;;
56893;SDS011;43392;50.078;13.704;2024-01-10T13:08:42;61.80;;;26.43;;
56893;SDS011;43392;50.078;13.704;2024-01-10T13:11:10;51.73;;;25.30;;
56893;SDS011;43392;50.078;13.704;2024-01-10T13:13:39;56.85;;;26.05;;
56893;SDS011;43392;50.078;13.704;2024-01-10T13:16:05;52.80;;;26.48;;
56893;SDS011;43392;50.078;13.704;2024-01-10T13:18:35;61.07;;;27.33;;
56893;SDS011;43392;50.078;13.704;2024-01-10T13:21:02;50.20;;;25.50;;
56893;SDS011;43392;50.078;13.704;2024-01-10T13:23:29;59.27;;;28.83;;
56893;SDS011;43392;50.078;13.704;2024-01-10T13:25:56;60.28;;;29.60;;
56893;SDS011;43392;50.078;13.704;2024-01-10T13:28:24;56.40;;;27.47;;
56893;SDS011;43392;50.078;13.704;2024-01-10T13:30:50;53.70;;;28.07;;
56893;SDS011;43392;50.078;13.704;2024-01-10T13:33:17;61.53;;;28.23;;
56893;SDS011;43392;50.078;13.704;2024-01-10T13:35:45;51.67;;;26.63;;
56893;SDS011;43392;50.078;13.704;2024-01-10T13:38:12;65.17;;;29.47;;
56893;SDS011;43392;50.078;13.704;2024-01-10T13:40:38;69.43;;;30.80;;
56893;SDS011;43392;50.078;13.704;2024-01-10T13:43:05;62.97;;;29.98;;
56893;SDS011;43392;50.078;13.704;2024-01-10T13:45:33;84.07;;;37.97;;
56893;SDS011;43392;50.078;13.704;2024-01-10T13:48:00;69.27;;;33.53;;
56893;SDS011;43392;50.078;13.704;2024-01-10T13:50:27;78.17;;;36.90;;
56893;SDS011;43392;50.078;13.704;2024-01-10T13:52:55;76.90;;;38.10;;
56893;SDS011;43392;50.078;13.704;2024-01-10T13:55:21;73.70;;;37.20;;
56893;SDS011;43392;50.078;13.704;2024-01-10T13:57:49;72.70;;;35.03;;
56893;SDS011;43392;50.078;13.704;2024-01-10T14:00:16;57.50;;;27.33;;
56893;SDS011;43392;50.078;13.704;2024-01-10T14:02:47;72.07;;;32.38;;
56893;SDS011;43392;50.078;13.704;2024-01-10T14:05:13;64.72;;;31.83;;
56893;SDS011;43392;50.078;13.704;2024-01-10T14:07:40;61.10;;;29.57;;
56893;SDS011;43392;50.078;13.704;2024-01-10T14:10:09;62.67;;;29.13;;
56893;SDS011;43392;50.078;13.704;2024-01-10T14:12:37;61.77;;;29.10;;
56893;SDS011;43392;50.078;13.704;2024-01-10T14:15:03;55.77;;;29.07;;